createdAt,value
2018-10-16T00:00:52.241Z,14.69
2018-10-16T00:01:52.229Z,14.50
2018-10-16T00:02:52.221Z,14.89
2018-10-16T00:03:52.209Z,15.00
2018-10-16T00:04:52.198Z,15.50
2018-10-16T00:05:52.186Z,15.19
2018-10-16T00:06:52.175Z,15.30
2018-10-16T00:07:52.166Z,15.10
2018-10-16T00:08:52.154Z,14.89
2018-10-16T00:09:52.143Z,15.19
2018-10-16T00:10:52.133Z,14.80
2018-10-16T00:11:52.123Z,15.00
2018-10-16T00:12:52.114Z,14.80
2018-10-16T00:13:52.103Z,14.80
2018-10-16T00:14:52.092Z,14.69
2018-10-16T00:15:52.081Z,14.39
2018-10-16T00:16:52.068Z,14.69
2018-10-16T00:17:52.058Z,14.69
2018-10-16T00:18:52.047Z,15.00
2018-10-16T00:19:52.035Z,14.30
2018-10-16T00:20:52.027Z,14.39
2018-10-16T00:21:52.015Z,13.80
2018-10-16T00:22:52.005Z,14.60
2018-10-16T00:23:51.992Z,14.30
2018-10-16T00:24:51.984Z,15.10
2018-10-16T00:25:51.971Z,15.60
2018-10-16T00:26:51.961Z,15.10
2018-10-16T00:27:51.949Z,15.30
2018-10-16T00:28:51.938Z,14.50
2018-10-16T00:29:51.930Z,15.10
2018-10-16T00:30:51.919Z,15.50
2018-10-16T00:31:51.910Z,15.00
2018-10-16T00:32:51.897Z,15.39
2018-10-16T00:33:51.885Z,14.89
2018-10-16T00:34:51.876Z,15.30
2018-10-16T00:35:51.863Z,14.00
2018-10-16T00:36:51.855Z,14.89
2018-10-16T00:37:51.842Z,14.39
2018-10-16T00:38:51.836Z,13.89
2018-10-16T00:39:51.823Z,14.60
2018-10-16T00:40:51.814Z,14.69
2018-10-16T00:41:51.798Z,14.39
2018-10-16T00:42:51.787Z,14.50
2018-10-16T00:43:51.777Z,14.00
2018-10-16T00:44:51.768Z,15.00
2018-10-16T00:45:51.756Z,14.50
2018-10-16T00:46:51.748Z,14.10
2018-10-16T00:47:51.734Z,14.10
2018-10-16T00:48:51.724Z,14.89
2018-10-16T00:49:51.714Z,14.60
2018-10-16T00:50:51.703Z,14.89
2018-10-16T00:51:51.690Z,14.69
2018-10-16T00:52:51.681Z,14.80
2018-10-16T00:53:51.669Z,14.89
2018-10-16T00:54:51.747Z,14.60
2018-10-16T00:55:51.648Z,14.89
2018-10-16T00:56:51.636Z,15.00
2018-10-16T00:57:51.627Z,15.60
2018-10-16T00:58:51.622Z,15.00
2018-10-16T00:59:51.603Z,16.20
2018-10-16T01:00:51.597Z,14.60
2018-10-16T01:01:51.583Z,15.00
2018-10-16T01:02:51.571Z,14.69
2018-10-16T01:03:51.561Z,15.00
2018-10-16T01:04:51.554Z,15.19
2018-10-16T01:05:51.542Z,14.69
2018-10-16T01:06:51.536Z,14.10
2018-10-16T01:07:51.521Z,14.80
2018-10-16T01:08:51.509Z,14.69
2018-10-16T01:09:51.498Z,15.00
2018-10-16T01:10:51.485Z,14.69
2018-10-16T01:11:51.477Z,14.80
2018-10-16T01:12:51.465Z,14.30
2018-10-16T01:13:51.458Z,15.80
2018-10-16T01:14:51.444Z,15.60
2018-10-16T01:15:51.435Z,14.69
2018-10-16T01:16:51.420Z,15.50
2018-10-16T01:17:51.411Z,15.39
2018-10-16T01:18:51.400Z,15.10
2018-10-16T01:19:51.387Z,14.69
2018-10-16T01:20:51.379Z,15.10
2018-10-16T01:21:51.368Z,14.60
2018-10-16T01:22:51.356Z,15.30
2018-10-16T01:23:51.347Z,15.00
2018-10-16T01:24:51.335Z,14.39
2018-10-16T01:25:51.325Z,14.89
2018-10-16T01:26:51.314Z,14.80
2018-10-16T01:27:51.305Z,15.19
2018-10-16T01:28:51.296Z,13.89
2018-10-16T01:29:51.282Z,14.89
2018-10-16T01:30:51.270Z,15.10
2018-10-16T01:31:51.258Z,15.19
2018-10-16T01:32:51.250Z,15.50
2018-10-16T01:33:51.237Z,14.80
2018-10-16T01:34:51.225Z,14.39
2018-10-16T01:35:51.214Z,15.30
2018-10-16T01:36:51.204Z,15.10
2018-10-16T01:37:51.193Z,14.80
2018-10-16T01:38:51.184Z,14.50
2018-10-16T01:39:51.172Z,14.80
2018-10-16T01:40:51.162Z,14.19
2018-10-16T01:41:51.153Z,14.80
2018-10-16T01:42:51.138Z,15.00
2018-10-16T01:43:51.128Z,15.19
2018-10-16T01:44:51.121Z,16.39
2018-10-16T01:45:51.108Z,15.10
2018-10-16T01:46:51.097Z,16.29
2018-10-16T01:47:51.086Z,14.69
2018-10-16T01:48:51.075Z,14.19
2018-10-16T01:49:51.068Z,14.69
2018-10-16T01:50:51.054Z,15.69
2018-10-16T01:51:51.045Z,16.10
2018-10-16T01:52:51.031Z,14.80
2018-10-16T01:53:51.021Z,14.30
2018-10-16T01:54:51.015Z,15.00
2018-10-16T01:55:50.999Z,15.30
2018-10-16T01:56:50.991Z,15.39
2018-10-16T01:57:50.980Z,15.30
2018-10-16T01:58:50.969Z,15.30
2018-10-16T01:59:50.958Z,15.89
2018-10-16T02:00:50.950Z,15.69
2018-10-16T02:01:50.936Z,15.19
2018-10-16T02:02:50.925Z,15.30
2018-10-16T02:03:50.916Z,15.69
2018-10-16T02:04:50.904Z,15.60
2018-10-16T02:05:50.900Z,16.10
2018-10-16T02:06:50.882Z,15.89
2018-10-16T02:07:50.876Z,15.89
2018-10-16T02:08:50.859Z,15.50
2018-10-16T02:09:50.850Z,15.19
2018-10-16T02:10:50.838Z,15.80
2018-10-16T02:11:50.832Z,16.39
2018-10-16T02:12:50.819Z,15.60
2018-10-16T02:13:50.807Z,15.60
2018-10-16T02:14:50.931Z,15.89
2018-10-16T02:15:50.784Z,15.60
2018-10-16T02:16:50.776Z,16.50
2018-10-16T02:17:50.763Z,16.10
2018-10-16T02:18:50.753Z,15.60
2018-10-16T02:19:50.742Z,15.60
2018-10-16T02:20:50.731Z,15.89
2018-10-16T02:21:50.720Z,16.20
2018-10-16T02:22:50.713Z,16.20
2018-10-16T02:23:50.700Z,15.60
2018-10-16T02:24:50.689Z,15.80
2018-10-16T02:25:50.676Z,15.50
2018-10-16T02:26:50.665Z,15.69
2018-10-16T02:27:50.654Z,15.39
2018-10-16T02:28:50.646Z,15.39
2018-10-16T02:29:50.634Z,15.89
2018-10-16T02:30:50.624Z,15.19
2018-10-16T02:31:50.613Z,16.20
2018-10-16T02:32:50.601Z,16.50
2018-10-16T02:33:50.598Z,16.60
2018-10-16T02:34:50.582Z,15.60
2018-10-16T02:35:50.569Z,15.60
2018-10-16T02:36:50.562Z,16.29
2018-10-16T02:37:50.562Z,16.10
2018-10-16T02:38:50.536Z,16.39
2018-10-16T02:39:50.528Z,15.89
2018-10-16T02:40:50.518Z,16.39
2018-10-16T02:41:50.504Z,16.20
2018-10-16T02:42:50.493Z,15.80
2018-10-16T02:43:50.485Z,15.50
2018-10-16T02:44:50.470Z,16.10
2018-10-16T02:45:50.463Z,15.89
2018-10-16T02:46:50.451Z,16.20
2018-10-16T02:47:50.439Z,16.10
2018-10-16T02:48:50.442Z,16.20
2018-10-16T02:49:50.423Z,15.50
2018-10-16T02:50:50.407Z,15.19
2018-10-16T02:51:50.396Z,15.69
2018-10-16T02:52:50.385Z,15.69
2018-10-16T02:53:50.378Z,16.50
2018-10-16T02:54:50.364Z,15.39
2018-10-16T02:55:50.354Z,16.00
2018-10-16T02:56:50.345Z,15.80
2018-10-16T02:57:50.334Z,15.30
2018-10-16T02:58:50.323Z,15.10
2018-10-16T02:59:50.317Z,14.69
2018-10-16T03:00:50.300Z,15.30
2018-10-16T03:01:50.291Z,15.19
2018-10-16T03:02:50.280Z,15.50
2018-10-16T03:03:50.268Z,15.19
2018-10-16T03:04:50.256Z,15.50
2018-10-16T03:05:50.247Z,14.30
2018-10-16T03:06:50.237Z,14.89
2018-10-16T03:07:50.223Z,15.30
2018-10-16T03:08:50.217Z,15.19
2018-10-16T03:09:50.205Z,15.39
2018-10-16T03:10:50.193Z,14.80
2018-10-16T03:11:50.181Z,15.50
2018-10-16T03:12:50.171Z,14.10
2018-10-16T03:13:50.159Z,14.39
2018-10-16T03:14:50.152Z,14.69
2018-10-16T03:15:50.138Z,14.50
2018-10-16T03:16:50.128Z,14.69
2018-10-16T03:17:50.115Z,14.80
2018-10-16T03:18:50.113Z,14.19
2018-10-16T03:19:50.099Z,14.10
2018-10-16T03:20:50.085Z,13.69
2018-10-16T03:21:50.073Z,14.80
2018-10-16T03:22:50.070Z,14.60
2018-10-16T03:23:50.050Z,14.39
2018-10-16T03:24:50.041Z,14.80
2018-10-16T03:25:50.027Z,15.19
2018-10-16T03:26:50.020Z,14.80
2018-10-16T03:27:50.008Z,14.60
2018-10-16T03:28:49.999Z,14.60
2018-10-16T03:29:49.989Z,14.80
2018-10-16T03:30:49.977Z,14.60
2018-10-16T03:31:49.966Z,14.50
2018-10-16T03:32:49.956Z,14.50
2018-10-16T03:33:49.945Z,13.60
2018-10-16T03:34:49.934Z,14.50
2018-10-16T03:35:49.923Z,14.60
2018-10-16T03:36:49.912Z,14.39
2018-10-16T03:37:49.900Z,15.30
2018-10-16T03:38:49.891Z,14.89
2018-10-16T03:39:49.880Z,14.10
2018-10-16T03:40:49.867Z,14.00
2018-10-16T03:41:49.859Z,14.50
2018-10-16T03:42:49.845Z,13.80
2018-10-16T03:43:49.835Z,14.50
2018-10-16T03:44:49.826Z,14.39
2018-10-16T03:45:49.814Z,14.39
2018-10-16T03:46:49.816Z,15.00
2018-10-16T03:47:49.795Z,14.60
2018-10-16T03:48:49.780Z,13.80
2018-10-16T03:49:49.775Z,14.30
2018-10-16T03:50:49.760Z,14.69
2018-10-16T03:51:49.749Z,14.39
2018-10-16T03:52:49.739Z,14.30
2018-10-16T03:53:49.730Z,14.19
2018-10-16T03:54:49.717Z,14.39
2018-10-16T03:55:49.719Z,15.39
2018-10-16T03:56:49.695Z,14.19
2018-10-16T03:57:49.685Z,14.10
2018-10-16T03:58:49.676Z,13.50
2018-10-16T03:59:49.663Z,14.00
2018-10-16T04:00:49.659Z,13.80
2018-10-16T04:01:49.642Z,14.10
2018-10-16T04:02:49.634Z,13.89
2018-10-16T04:03:49.618Z,14.80
2018-10-16T04:04:49.610Z,14.50
2018-10-16T04:05:49.598Z,14.69
2018-10-16T04:06:49.649Z,14.19
2018-10-16T04:07:49.580Z,14.50
2018-10-16T04:08:49.565Z,13.89
2018-10-16T04:09:49.558Z,14.10
2018-10-16T04:10:49.548Z,13.69
2018-10-16T04:11:49.534Z,14.19
2018-10-16T04:12:49.524Z,13.80
2018-10-16T04:13:49.514Z,14.39
2018-10-16T04:14:49.504Z,14.30
2018-10-16T04:15:49.489Z,14.00
2018-10-16T04:16:49.481Z,14.00
2018-10-16T04:17:49.472Z,14.19
2018-10-16T04:18:49.460Z,14.30
2018-10-16T04:19:49.447Z,15.00
2018-10-16T04:20:49.438Z,14.30
2018-10-16T04:21:49.432Z,14.19
2018-10-16T04:22:49.514Z,14.60
2018-10-16T04:23:49.418Z,13.60
2018-10-16T04:24:49.393Z,14.80
2018-10-16T04:25:49.382Z,13.80
2018-10-16T04:26:49.378Z,14.00
2018-10-16T04:27:49.359Z,13.69
2018-10-16T04:28:49.351Z,14.39
2018-10-16T04:29:49.340Z,13.89
2018-10-16T04:30:49.330Z,14.30
2018-10-16T04:31:49.317Z,14.19
2018-10-16T04:32:49.309Z,14.19
2018-10-16T04:33:49.298Z,13.60
2018-10-16T04:34:49.285Z,13.89
2018-10-16T04:35:49.276Z,12.89
2018-10-16T04:36:49.263Z,13.69
2018-10-16T04:37:49.252Z,13.69
2018-10-16T04:38:49.245Z,13.60
2018-10-16T04:39:49.230Z,14.19
2018-10-16T04:40:49.224Z,14.00
2018-10-16T04:41:49.212Z,13.80
2018-10-16T04:42:49.210Z,14.10
2018-10-16T04:43:49.270Z,13.39
2018-10-16T04:44:49.179Z,13.69
2018-10-16T04:45:49.167Z,14.39
2018-10-16T04:46:49.157Z,14.19
2018-10-16T04:47:49.145Z,14.30
2018-10-16T04:48:49.136Z,14.00
2018-10-16T04:49:49.124Z,13.50
2018-10-16T04:50:49.113Z,14.30
2018-10-16T04:51:49.106Z,13.80
2018-10-16T04:52:49.091Z,13.89
2018-10-16T04:53:49.080Z,13.60
2018-10-16T04:54:49.141Z,13.69
2018-10-16T04:55:49.059Z,13.30
2018-10-16T04:56:49.051Z,13.60
2018-10-16T04:57:49.044Z,13.89
2018-10-16T04:58:49.027Z,13.69
2018-10-16T04:59:49.017Z,13.80
2018-10-16T05:00:49.004Z,14.10
2018-10-16T05:01:48.992Z,14.00
2018-10-16T05:02:48.983Z,13.80
2018-10-16T05:03:48.972Z,14.39
2018-10-16T05:04:48.964Z,13.39
2018-10-16T05:05:48.953Z,13.50
2018-10-16T05:06:48.973Z,14.30
2018-10-16T05:07:48.931Z,13.69
2018-10-16T05:08:48.920Z,14.19
2018-10-16T05:09:48.910Z,13.30
2018-10-16T05:10:48.895Z,13.60
2018-10-16T05:11:48.886Z,12.89
2018-10-16T05:12:48.877Z,14.19
2018-10-16T05:13:48.867Z,13.50
2018-10-16T05:14:48.909Z,13.30
2018-10-16T05:15:48.843Z,13.10
2018-10-16T05:16:48.892Z,14.00
2018-10-16T05:17:48.821Z,12.69
2018-10-16T05:18:48.945Z,13.30
2018-10-16T05:19:48.800Z,13.69
2018-10-16T05:20:48.789Z,13.60
2018-10-16T05:21:48.779Z,13.50
2018-10-16T05:22:48.770Z,13.89
2018-10-16T05:23:48.758Z,13.39
2018-10-16T05:24:48.745Z,13.69
2018-10-16T05:25:48.736Z,12.80
2018-10-16T05:26:48.726Z,13.30
2018-10-16T05:27:48.718Z,13.30
2018-10-16T05:28:48.731Z,13.89
2018-10-16T05:29:48.693Z,13.60
2018-10-16T05:30:48.691Z,13.19
2018-10-16T05:31:48.670Z,12.60
2018-10-16T05:32:48.658Z,13.69
2018-10-16T05:33:48.649Z,13.60
2018-10-16T05:34:48.639Z,13.50
2018-10-16T05:35:48.629Z,13.39
2018-10-16T05:36:48.616Z,13.50
2018-10-16T05:37:48.606Z,13.10
2018-10-16T05:38:48.594Z,12.80
2018-10-16T05:39:48.585Z,13.10
2018-10-16T05:40:48.572Z,13.19
2018-10-16T05:41:48.565Z,14.19
2018-10-16T05:42:48.550Z,12.69
2018-10-16T05:43:48.542Z,13.39
2018-10-16T05:44:48.531Z,13.30
2018-10-16T05:45:48.522Z,13.39
2018-10-16T05:46:48.510Z,13.80
2018-10-16T05:47:48.498Z,13.19
2018-10-16T05:48:48.486Z,13.60
2018-10-16T05:49:48.477Z,13.10
2018-10-16T05:50:48.468Z,13.50
2018-10-16T05:51:48.453Z,13.00
2018-10-16T05:52:48.444Z,12.89
2018-10-16T05:53:48.435Z,13.00
2018-10-16T05:54:48.421Z,13.19
2018-10-16T05:55:48.413Z,14.00
2018-10-16T05:56:48.401Z,13.00
2018-10-16T05:57:48.391Z,12.80
2018-10-16T05:58:48.380Z,13.39
2018-10-16T05:59:48.367Z,13.69
2018-10-16T06:00:48.360Z,13.60
2018-10-16T06:01:48.348Z,13.19
2018-10-16T06:02:48.337Z,13.10
2018-10-16T06:03:48.326Z,13.30
2018-10-16T06:04:48.313Z,13.80
2018-10-16T06:05:48.414Z,13.50
2018-10-16T06:06:48.293Z,12.89
2018-10-16T06:07:48.284Z,13.50
2018-10-16T06:08:48.274Z,13.60
2018-10-16T06:09:48.261Z,13.50
2018-10-16T06:10:48.287Z,13.30
2018-10-16T06:11:48.242Z,13.80
2018-10-16T06:12:48.230Z,13.10
2018-10-16T06:13:48.218Z,13.00
2018-10-16T06:14:48.207Z,13.19
2018-10-16T06:15:48.211Z,13.89
2018-10-16T06:16:48.187Z,13.39
2018-10-16T06:17:48.173Z,13.19
2018-10-16T06:18:48.169Z,12.89
2018-10-16T06:19:48.154Z,12.89
2018-10-16T06:20:48.141Z,13.39
2018-10-16T06:21:48.137Z,13.39
2018-10-16T06:22:48.121Z,13.39
2018-10-16T06:23:48.110Z,13.80
2018-10-16T06:24:48.099Z,13.69
2018-10-16T06:25:48.090Z,13.50
2018-10-16T06:26:48.079Z,13.39
2018-10-16T06:27:48.180Z,14.00
2018-10-16T06:28:48.058Z,14.39
2018-10-16T06:29:48.045Z,13.69
2018-10-16T06:30:48.037Z,13.69
2018-10-16T06:31:48.024Z,13.39
2018-10-16T06:32:48.016Z,13.60
2018-10-16T06:33:48.002Z,13.30
2018-10-16T06:34:47.992Z,13.30
2018-10-16T06:35:47.981Z,13.39
2018-10-16T06:36:47.971Z,13.10
2018-10-16T06:37:47.959Z,13.19
2018-10-16T06:38:47.946Z,12.69
2018-10-16T06:39:47.940Z,13.00
2018-10-16T06:40:48.122Z,13.00
2018-10-16T06:41:47.969Z,13.39
2018-10-16T06:42:47.905Z,13.00
2018-10-16T06:43:47.941Z,13.30
2018-10-16T06:44:47.886Z,13.39
2018-10-16T06:45:47.877Z,13.30
2018-10-16T06:46:47.862Z,12.50
2018-10-16T06:47:47.909Z,11.80
2018-10-16T06:48:48.191Z,12.19
2018-10-16T06:49:47.829Z,12.00
2018-10-16T06:50:47.817Z,12.39
2018-10-16T06:51:47.807Z,12.89
2018-10-16T06:52:47.798Z,13.00
2018-10-16T06:53:47.787Z,12.30
2018-10-16T06:54:47.917Z,12.19
2018-10-16T06:55:47.770Z,12.89
2018-10-16T06:56:47.755Z,12.60
2018-10-16T06:57:47.743Z,13.30
2018-10-16T06:58:47.731Z,13.00
2018-10-16T06:59:47.720Z,12.60
2018-10-16T07:00:47.712Z,12.19
2018-10-16T07:01:47.701Z,12.80
2018-10-16T07:02:47.689Z,13.19
2018-10-16T07:03:47.677Z,12.69
2018-10-16T07:04:47.667Z,12.50
2018-10-16T07:05:47.655Z,12.50
2018-10-16T07:06:47.708Z,12.80
2018-10-16T07:07:47.638Z,12.39
2018-10-16T07:08:47.628Z,12.39
2018-10-16T07:09:47.611Z,12.30
2018-10-16T07:10:47.600Z,12.60
2018-10-16T07:11:47.590Z,12.60
2018-10-16T07:12:47.580Z,12.80
2018-10-16T07:13:47.568Z,12.69
2018-10-16T07:14:47.608Z,12.80
2018-10-16T07:15:47.547Z,13.10
2018-10-16T07:16:47.537Z,12.89
2018-10-16T07:17:47.524Z,13.10
2018-10-16T07:18:47.515Z,12.50
2018-10-16T07:19:47.505Z,12.60
2018-10-16T07:20:47.493Z,12.80
2018-10-16T07:21:47.483Z,13.19
2018-10-16T07:22:47.473Z,13.50
2018-10-16T07:23:47.485Z,12.80
2018-10-16T07:24:47.450Z,12.10
2018-10-16T07:25:47.443Z,12.80
2018-10-16T07:26:47.428Z,12.50
2018-10-16T07:27:47.417Z,12.60
2018-10-16T07:28:47.410Z,12.00
2018-10-16T07:29:47.399Z,12.80
2018-10-16T07:30:47.385Z,12.50
2018-10-16T07:31:47.373Z,13.00
2018-10-16T07:32:47.363Z,12.50
2018-10-16T07:33:47.356Z,12.60
2018-10-16T07:34:47.344Z,12.69
2018-10-16T07:35:47.340Z,12.30
2018-10-16T07:36:47.319Z,12.69
2018-10-16T07:37:47.432Z,12.30
2018-10-16T07:38:47.362Z,13.19
2018-10-16T07:39:47.286Z,12.30
2018-10-16T07:40:47.276Z,12.19
2018-10-16T07:41:47.268Z,12.39
2018-10-16T07:42:47.256Z,11.89
2018-10-16T07:43:47.249Z,12.60
2018-10-16T07:44:47.233Z,12.19
2018-10-16T07:45:47.223Z,12.30
2018-10-16T07:46:47.211Z,12.39
2018-10-16T07:47:47.200Z,12.10
2018-10-16T07:48:47.189Z,12.30
2018-10-16T07:49:47.179Z,11.89
2018-10-16T07:50:47.169Z,12.10
2018-10-16T07:51:47.163Z,11.89
2018-10-16T07:52:47.146Z,11.39
2018-10-16T07:53:47.136Z,11.50
2018-10-16T07:54:47.134Z,11.69
2018-10-16T07:55:47.117Z,12.19
2018-10-16T07:56:47.106Z,12.10
2018-10-16T07:57:47.108Z,11.89
2018-10-16T07:58:47.082Z,12.00
2018-10-16T07:59:47.070Z,12.19
2018-10-16T08:00:47.089Z,11.50
2018-10-16T08:01:47.048Z,11.89
2018-10-16T08:02:47.038Z,12.00
2018-10-16T08:03:47.026Z,11.80
2018-10-16T08:04:47.015Z,11.80
2018-10-16T08:05:47.007Z,12.00
2018-10-16T08:06:46.993Z,11.80
2018-10-16T08:07:46.983Z,11.89
2018-10-16T08:08:46.973Z,10.80
2018-10-16T08:09:46.961Z,11.60
2018-10-16T08:10:46.949Z,11.10
2018-10-16T08:11:46.941Z,10.50
2018-10-16T08:12:46.931Z,11.30
2018-10-16T08:13:46.922Z,11.30
2018-10-16T08:14:46.907Z,10.89
2018-10-16T08:15:46.902Z,11.30
2018-10-16T08:16:46.886Z,11.00
2018-10-16T08:17:46.876Z,11.00
2018-10-16T08:18:46.866Z,11.80
2018-10-16T08:19:46.855Z,11.00
2018-10-16T08:20:46.844Z,10.89
2018-10-16T08:21:46.834Z,11.39
2018-10-16T08:22:46.823Z,11.10
2018-10-16T08:23:46.823Z,10.89
2018-10-16T08:24:46.800Z,10.50
2018-10-16T08:25:46.791Z,11.19
2018-10-16T08:26:46.816Z,10.39
2018-10-16T08:27:46.768Z,10.19
2018-10-16T08:28:46.756Z,10.39
2018-10-16T08:29:46.745Z,10.50
2018-10-16T08:30:46.736Z,10.50
2018-10-16T08:31:46.723Z,11.00
2018-10-16T08:32:46.716Z,10.89
2018-10-16T08:33:46.703Z,10.00
2018-10-16T08:34:46.741Z,10.30
2018-10-16T08:35:46.786Z,10.80
2018-10-16T08:36:46.759Z,10.00
2018-10-16T08:37:46.663Z,10.50
2018-10-16T08:38:46.647Z,9.89
2018-10-16T08:39:46.637Z,9.80
2018-10-16T08:40:46.627Z,9.89
2018-10-16T08:41:46.665Z,10.19
2018-10-16T08:42:46.607Z,9.69
2018-10-16T08:43:46.595Z,9.80
2018-10-16T08:44:46.584Z,9.50
2018-10-16T08:45:46.571Z,9.80
2018-10-16T08:46:46.561Z,9.80
2018-10-16T08:47:46.550Z,9.69
2018-10-16T08:48:46.541Z,9.39
2018-10-16T08:49:46.530Z,9.60
2018-10-16T08:50:46.519Z,9.89
2018-10-16T08:51:46.507Z,9.60
2018-10-16T08:52:46.498Z,9.80
2018-10-16T08:53:46.486Z,9.89
2018-10-16T08:54:46.507Z,9.69
2018-10-16T08:55:46.466Z,9.60
2018-10-16T08:56:46.456Z,9.69
2018-10-16T08:57:46.448Z,9.89
2018-10-16T08:58:46.431Z,9.30
2018-10-16T08:59:46.422Z,9.19
2018-10-16T09:00:46.410Z,9.19
2018-10-16T09:01:46.400Z,9.10
2018-10-16T09:02:46.393Z,9.30
2018-10-16T09:03:46.379Z,9.50
2018-10-16T09:04:46.368Z,9.30
2018-10-16T09:05:46.358Z,9.19
2018-10-16T09:06:46.465Z,9.19
2018-10-16T09:07:46.334Z,9.10
2018-10-16T09:08:46.323Z,9.19
2018-10-16T09:09:46.317Z,8.60
2018-10-16T09:10:46.304Z,9.50
2018-10-16T09:11:46.295Z,8.69
2018-10-16T09:12:46.283Z,9.50
2018-10-16T09:13:46.326Z,9.00
2018-10-16T09:14:46.260Z,9.19
2018-10-16T09:15:46.254Z,8.69
2018-10-16T09:16:46.240Z,8.69
2018-10-16T09:17:46.228Z,9.00
2018-10-16T09:18:46.215Z,8.80
2018-10-16T09:19:46.206Z,8.80
2018-10-16T09:20:46.197Z,8.89
2018-10-16T09:21:46.184Z,8.80
2018-10-16T09:22:46.175Z,8.39
2018-10-16T09:23:46.163Z,8.60
2018-10-16T09:24:46.261Z,8.50
2018-10-16T09:25:46.142Z,8.69
2018-10-16T09:26:46.133Z,8.50
2018-10-16T09:27:46.119Z,8.10
2018-10-16T09:28:46.111Z,8.39
2018-10-16T09:29:46.100Z,8.50
2018-10-16T09:30:46.120Z,8.60
2018-10-16T09:31:46.079Z,8.50
2018-10-16T09:32:46.067Z,8.50
2018-10-16T09:33:46.057Z,8.60
2018-10-16T09:34:46.051Z,8.19
2018-10-16T09:35:46.035Z,8.89
2018-10-16T09:36:46.025Z,8.10
2018-10-16T09:37:46.238Z,9.00
2018-10-16T09:38:46.003Z,8.10
2018-10-16T09:39:45.991Z,8.30
2018-10-16T09:40:45.982Z,8.30
2018-10-16T09:41:45.973Z,8.19
2018-10-16T09:42:45.958Z,7.80
2018-10-16T09:43:45.948Z,7.80
2018-10-16T09:44:45.939Z,8.10
2018-10-16T09:45:45.926Z,7.50
2018-10-16T09:46:45.915Z,8.00
2018-10-16T09:47:45.905Z,7.90
2018-10-16T09:48:45.896Z,8.10
2018-10-16T09:49:45.886Z,7.80
2018-10-16T09:50:45.874Z,8.10
2018-10-16T09:51:45.863Z,7.90
2018-10-16T09:52:45.851Z,7.90
2018-10-16T09:53:45.844Z,7.69
2018-10-16T09:54:45.830Z,7.69
2018-10-16T09:55:45.824Z,8.00
2018-10-16T09:56:45.810Z,8.10
2018-10-16T09:57:45.798Z,7.50
2018-10-16T09:58:45.789Z,7.69
2018-10-16T09:59:45.776Z,7.50
2018-10-16T10:00:45.798Z,7.59
2018-10-16T10:01:45.755Z,7.90
2018-10-16T10:02:45.744Z,7.40
2018-10-16T10:03:45.732Z,7.59
2018-10-16T10:04:45.723Z,7.40
2018-10-16T10:05:45.710Z,7.40
2018-10-16T10:06:45.703Z,7.09
2018-10-16T10:07:45.691Z,7.30
2018-10-16T10:08:45.684Z,7.80
2018-10-16T10:09:45.669Z,7.40
2018-10-16T10:10:45.687Z,7.30
2018-10-16T10:11:45.648Z,7.00
2018-10-16T10:12:45.635Z,7.69
2018-10-16T10:13:45.624Z,7.40
2018-10-16T10:14:45.618Z,7.69
2018-10-16T10:15:45.604Z,7.59
2018-10-16T10:16:45.595Z,7.30
2018-10-16T10:17:45.582Z,7.80
2018-10-16T10:18:45.571Z,7.30
2018-10-16T10:19:45.563Z,7.19
2018-10-16T10:20:45.554Z,7.40
2018-10-16T10:21:45.540Z,7.00
2018-10-16T10:22:45.531Z,7.19
2018-10-16T10:23:45.525Z,7.50
2018-10-16T10:24:45.509Z,7.30
2018-10-16T10:25:45.509Z,7.50
2018-10-16T10:26:45.487Z,7.19
2018-10-16T10:27:45.475Z,7.00
2018-10-16T10:28:45.466Z,7.00
2018-10-16T10:29:45.577Z,7.30
2018-10-16T10:30:45.444Z,7.09
2018-10-16T10:31:45.432Z,7.40
2018-10-16T10:32:45.421Z,7.30
2018-10-16T10:33:45.409Z,7.09
2018-10-16T10:34:45.400Z,6.90
2018-10-16T10:35:45.388Z,7.19
2018-10-16T10:36:45.377Z,7.30
2018-10-16T10:37:45.367Z,7.59
2018-10-16T10:38:45.356Z,7.19
2018-10-16T10:39:45.344Z,7.30
2018-10-16T10:40:45.333Z,7.40
2018-10-16T10:41:45.324Z,7.50
2018-10-16T10:42:45.314Z,7.40
2018-10-16T10:43:45.303Z,7.00
2018-10-16T10:44:45.290Z,7.59
2018-10-16T10:45:45.281Z,7.59
2018-10-16T10:46:45.269Z,7.30
2018-10-16T10:47:45.259Z,7.30
2018-10-16T10:48:45.247Z,7.19
2018-10-16T10:49:45.246Z,7.40
2018-10-16T10:50:45.521Z,7.00
2018-10-16T10:51:45.225Z,7.40
2018-10-16T10:52:45.206Z,7.00
2018-10-16T10:53:45.195Z,7.30
2018-10-16T10:54:45.186Z,7.00
2018-10-16T10:55:45.172Z,7.09
2018-10-16T10:56:45.269Z,6.90
2018-10-16T10:57:45.150Z,6.90
2018-10-16T10:58:45.146Z,7.40
2018-10-16T10:59:45.128Z,6.80
2018-10-16T11:00:45.116Z,7.09
2018-10-16T11:01:45.107Z,7.30
2018-10-16T11:02:45.097Z,7.00
2018-10-16T11:03:45.099Z,6.90
2018-10-16T11:04:45.074Z,6.80
2018-10-16T11:05:45.064Z,6.59
2018-10-16T11:06:45.053Z,6.90
2018-10-16T11:07:45.041Z,6.80
2018-10-16T11:08:45.035Z,6.80
2018-10-16T11:09:45.024Z,6.80
2018-10-16T11:10:45.010Z,7.00
2018-10-16T11:11:44.999Z,6.59
2018-10-16T11:12:44.991Z,6.50
2018-10-16T11:13:44.979Z,6.50
2018-10-16T11:14:44.965Z,6.40
2018-10-16T11:15:44.956Z,6.80
2018-10-16T11:16:44.951Z,6.59
2018-10-16T11:17:44.935Z,6.50
2018-10-16T11:18:44.926Z,6.59
2018-10-16T11:19:44.913Z,6.69
2018-10-16T11:20:44.904Z,6.50
2018-10-16T11:21:44.892Z,6.80
2018-10-16T11:22:44.881Z,6.59
2018-10-16T11:23:44.873Z,6.40
2018-10-16T11:24:44.861Z,6.90
2018-10-16T11:25:44.849Z,6.40
2018-10-16T11:26:44.843Z,6.40
2018-10-16T11:27:44.828Z,6.30
2018-10-16T11:28:44.820Z,6.59
2018-10-16T11:29:44.807Z,6.30
2018-10-16T11:30:44.796Z,6.50
2018-10-16T11:31:44.793Z,6.19
2018-10-16T11:32:44.772Z,6.59
2018-10-16T11:33:44.763Z,6.80
2018-10-16T11:34:44.749Z,6.00
2018-10-16T11:35:44.742Z,6.00
2018-10-16T11:36:44.729Z,6.19
2018-10-16T11:37:44.719Z,6.09
2018-10-16T11:38:44.709Z,6.30
2018-10-16T11:39:44.699Z,6.09
2018-10-16T11:40:44.688Z,6.50
2018-10-16T11:41:44.677Z,6.40
2018-10-16T11:42:44.665Z,6.30
2018-10-16T11:43:44.654Z,6.09
2018-10-16T11:44:44.643Z,6.09
2018-10-16T11:45:44.676Z,6.40
2018-10-16T11:46:44.624Z,6.40
2018-10-16T11:47:44.610Z,6.30
2018-10-16T11:48:44.604Z,6.30
2018-10-16T11:49:44.588Z,6.30
2018-10-16T11:50:44.579Z,6.30
2018-10-16T11:51:44.570Z,6.50
2018-10-16T11:52:44.558Z,6.09
2018-10-16T11:53:44.547Z,6.09
2018-10-16T11:54:44.535Z,5.90
2018-10-16T11:55:44.523Z,6.00
2018-10-16T11:56:44.515Z,6.00
2018-10-16T11:57:44.503Z,6.09
2018-10-16T11:58:44.492Z,5.90
2018-10-16T11:59:44.482Z,6.09
2018-10-16T12:00:44.474Z,6.19
2018-10-16T12:01:44.460Z,5.80
2018-10-16T12:02:44.451Z,6.00
2018-10-16T12:03:44.444Z,5.90
2018-10-16T12:04:44.427Z,6.19
2018-10-16T12:05:44.415Z,5.90
2018-10-16T12:06:44.406Z,6.09
2018-10-16T12:07:44.395Z,5.80
2018-10-16T12:08:44.384Z,6.30
2018-10-16T12:09:44.374Z,5.80
2018-10-16T12:10:44.402Z,5.40
2018-10-16T12:11:44.353Z,5.80
2018-10-16T12:12:44.348Z,5.50
2018-10-16T12:13:44.328Z,5.80
2018-10-16T12:14:44.319Z,5.69
2018-10-16T12:15:44.309Z,5.69
2018-10-16T12:16:44.330Z,5.69
2018-10-16T12:17:44.288Z,5.80
2018-10-16T12:18:44.276Z,5.50
2018-10-16T12:19:44.280Z,6.00
2018-10-16T12:20:44.266Z,5.69
2018-10-16T12:21:44.247Z,5.40
2018-10-16T12:22:44.235Z,5.59
2018-10-16T12:23:44.407Z,5.80
2018-10-16T12:24:44.213Z,5.50
2018-10-16T12:25:44.203Z,5.69
2018-10-16T12:26:44.193Z,5.40
2018-10-16T12:27:44.180Z,5.80
2018-10-16T12:28:44.217Z,5.40
2018-10-16T12:29:44.161Z,5.50
2018-10-16T12:30:44.149Z,5.59
2018-10-16T12:31:44.137Z,5.50
2018-10-16T12:32:44.127Z,5.50
2018-10-16T12:33:44.116Z,5.69
2018-10-16T12:34:44.106Z,5.50
2018-10-16T12:35:44.093Z,5.40
2018-10-16T12:36:44.082Z,5.40
2018-10-16T12:37:44.073Z,5.19
2018-10-16T12:38:44.065Z,5.19
2018-10-16T12:39:44.144Z,5.30
2018-10-16T12:40:44.044Z,5.19
2018-10-16T12:41:44.030Z,5.00
2018-10-16T12:42:44.038Z,4.90
2018-10-16T12:43:44.161Z,5.40
2018-10-16T12:44:43.998Z,5.40
2018-10-16T12:45:43.989Z,4.90
2018-10-16T12:46:43.977Z,5.19
2018-10-16T12:47:43.967Z,5.40
2018-10-16T12:48:43.954Z,5.30
2018-10-16T12:49:43.946Z,5.30
2018-10-16T12:50:43.934Z,5.50
2018-10-16T12:51:43.924Z,5.40
2018-10-16T12:52:43.914Z,5.09
2018-10-16T12:53:43.902Z,5.30
2018-10-16T12:54:43.893Z,5.30
2018-10-16T12:55:43.885Z,5.30
2018-10-16T12:56:43.969Z,5.30
2018-10-16T12:57:43.861Z,5.19
2018-10-16T12:58:43.853Z,5.40
2018-10-16T12:59:43.837Z,5.19
2018-10-16T13:00:43.828Z,5.19
2018-10-16T13:01:43.818Z,5.50